EVLA/LPX METAR and TAF weather

Enter ICAO airport designator
Station Type Date Time Source
EVLA METAR 2019/08/19 11:50 UTC NOAA

EVLA 191150Z AUTO 25012KT 9999 FEW021/// 21/14 Q1013


Station Type Date Time Source
EVLA Decoded METAR 2019/08/19 11:50 UTC NOAA

Station name not available
Aug 19, 2019 - 07:50 AM EDT / 2019.08.19 1150 UTC
Wind: from the WSW (250 degrees) at 14 MPH (12 KT):0
Visibility: greater than 7 mile(s):0
Sky conditions: mostly clear
Temperature: 69 F (21 C)
Dew Point: 57 F (14 C)
Relative Humidity: 64%
Pressure (altimeter): 29.91 in. Hg (1013 hPa)
ob: EVLA 191150Z AUTO 25012KT 9999 FEW021/// 21/14 Q1013
cycle: 12

Station Type Date Time Source
EVLA TAF 2019/08/19 12:03 UTC NOAA

TAF EVLA 191102Z 1912/2012 24007KT 9999 BKN025
TEMPO 1921/2003 2000 BR

Example: see airport list